Time;durP1;ratioP1;P1;durP2;ratioP2;P2;SDS_P1;SDS_P2;PMS_P1;PMS_P2;Temp;Humidity;BMP_temperature;BMP_pressure;BME280_temperature;BME280_humidity;BME280_pressure;Samples;Min_cycle;Max_cycle;Signal;HPM_P1;HPM_P2
2024/04/03 00:02:22;;;;;;;3.50;1.77;;;8.70;99.90;;;;;;4986764;28;20255;-71
2024/04/03 00:04:47;;;;;;;2.30;2.10;;;8.70;99.90;;;;;;4989741;28;20319;-70
2024/04/03 00:07:13;;;;;;;3.60;1.97;;;8.80;99.90;;;;;;4981156;28;20175;-70
2024/04/03 00:09:38;;;;;;;1.90;1.53;;;8.80;99.90;;;;;;4992694;28;20199;-71
2024/04/03 00:12:04;;;;;;;2.40;1.43;;;8.80;99.90;;;;;;4985015;28;20706;-71
2024/04/03 00:14:30;;;;;;;2.30;1.40;;;8.90;99.90;;;;;;4989780;28;20186;-71
2024/04/03 00:16:55;;;;;;;3.70;1.50;;;8.90;99.90;;;;;;4989543;28;20485;-71
2024/04/03 00:19:21;;;;;;;6.53;1.27;;;8.90;99.90;;;;;;4994455;28;20172;-71
2024/04/03 00:21:47;;;;;;;1.60;1.23;;;8.90;99.90;;;;;;4994686;28;20195;-71
2024/04/03 00:24:12;;;;;;;1.90;1.57;;;9.00;99.90;;;;;;4993731;28;20596;-71
2024/04/03 00:26:38;;;;;;;2.00;1.50;;;8.90;99.90;;;;;;4993330;28;20481;-71
2024/04/03 00:29:03;;;;;;;3.27;1.50;;;8.90;99.90;;;;;;4986447;28;20176;-71
2024/04/03 00:31:29;;;;;;;2.57;1.73;;;8.90;99.90;;;;;;4986153;28;20204;-71
2024/04/03 00:33:54;;;;;;;3.13;1.57;;;8.90;99.90;;;;;;4986564;28;20207;-71
2024/04/03 00:36:20;;;;;;;2.20;1.93;;;8.90;99.90;;;;;;4994177;28;20179;-71
2024/04/03 00:38:45;;;;;;;2.10;1.20;;;8.80;99.90;;;;;;4992343;28;20207;-71
2024/04/03 00:41:11;;;;;;;3.03;1.30;;;8.90;99.90;;;;;;4993812;28;20207;-71
2024/04/03 00:43:36;;;;;;;3.30;1.80;;;8.90;99.90;;;;;;4989610;28;20579;-71
2024/04/03 00:46:04;;;;;;;4.83;1.70;;;8.90;99.90;;;;;;4992887;28;20183;-71
2024/04/03 00:48:30;;;;;;;2.87;1.47;;;8.90;99.90;;;;;;4990201;28;20345;-71
2024/04/03 00:50:57;;;;;;;4.53;2.40;;;8.90;99.90;;;;;;4987810;28;20447;-71
2024/04/03 00:53:23;;;;;;;3.20;1.70;;;8.90;99.90;;;;;;4986232;28;20446;-71
2024/04/03 00:55:49;;;;;;;3.80;1.50;;;8.90;99.90;;;;;;4993505;28;20467;-71
2024/04/03 00:58:16;;;;;;;2.60;1.77;;;8.90;99.90;;;;;;4986594;28;20606;-71
2024/04/03 01:00:41;;;;;;;3.47;1.77;;;8.90;99.90;;;;;;4985054;28;20510;-71
2024/04/03 01:03:07;;;;;;;4.30;1.87;;;8.90;99.90;;;;;;4988864;28;20980;-71
2024/04/03 01:05:34;;;;;;;1.57;1.20;;;8.80;99.90;;;;;;4992807;28;20314;-71
2024/04/03 01:07:59;;;;;;;2.63;1.60;;;8.70;99.90;;;;;;4992320;28;20458;-71
2024/04/03 01:10:26;;;;;;;1.80;1.40;;;8.60;99.90;;;;;;4991486;28;20537;-71
2024/04/03 01:12:54;;;;;;;2.63;1.40;;;8.60;99.90;;;;;;4987453;28;20267;-71
2024/04/03 01:15:20;;;;;;;1.80;1.70;;;8.60;99.90;;;;;;4993289;28;20431;-71
2024/04/03 01:17:45;;;;;;;6.53;1.60;;;8.50;99.90;;;;;;4990657;28;20989;-71
2024/04/03 01:20:12;;;;;;;3.60;1.73;;;8.50;99.90;;;;;;4993412;28;20426;-71
2024/04/03 01:22:37;;;;;;;1.70;1.60;;;8.50;99.90;;;;;;4993569;28;20739;-71
2024/04/03 01:25:03;;;;;;;1.50;1.40;;;8.50;99.90;;;;;;4989574;28;20514;-71
2024/04/03 01:27:29;;;;;;;2.13;1.27;;;8.40;99.90;;;;;;4989125;28;20175;-71
2024/04/03 01:29:55;;;;;;;2.30;1.57;;;8.40;99.90;;;;;;4993727;28;20457;-70
2024/04/03 01:32:23;;;;;;;2.80;1.53;;;8.40;99.90;;;;;;4991574;28;20611;-71
2024/04/03 01:34:49;;;;;;;5.97;1.73;;;8.30;99.90;;;;;;4992927;28;20219;-71
2024/04/03 01:37:17;;;;;;;1.83;1.50;;;8.20;99.90;;;;;;4990445;28;20976;-71
2024/04/03 01:39:42;;;;;;;4.70;1.60;;;8.20;99.90;;;;;;4993484;28;20849;-71
2024/04/03 01:42:08;;;;;;;1.70;1.60;;;8.20;99.90;;;;;;4992149;28;20541;-71
2024/04/03 01:44:33;;;;;;;2.10;1.50;;;8.20;99.90;;;;;;4992398;28;20183;-71
2024/04/03 01:46:59;;;;;;;1.70;1.60;;;8.10;99.90;;;;;;4988493;28;20713;-71
2024/04/03 01:49:25;;;;;;;3.97;1.73;;;8.10;99.90;;;;;;4973064;28;20243;-71
2024/04/03 01:51:50;;;;;;;2.23;1.60;;;8.00;99.90;;;;;;4983286;28;20207;-71
2024/04/03 01:54:15;;;;;;;2.50;1.40;;;8.00;99.90;;;;;;4992902;28;20194;-70
2024/04/03 01:56:41;;;;;;;3.40;1.40;;;8.00;99.90;;;;;;4976107;28;20552;-71
2024/04/03 01:59:06;;;;;;;3.23;1.63;;;8.00;99.90;;;;;;4993205;28;20171;-71
2024/04/03 02:01:32;;;;;;;1.77;1.67;;;8.00;99.90;;;;;;4992132;28;20203;-71
2024/04/03 02:03:57;;;;;;;2.13;1.60;;;8.10;99.90;;;;;;4991965;28;20180;-71
2024/04/03 02:06:23;;;;;;;5.87;1.30;;;8.10;99.90;;;;;;4992447;28;20198;-71
2024/04/03 02:08:48;;;;;;;2.27;1.50;;;8.10;99.90;;;;;;4987521;28;20182;-71
2024/04/03 02:11:14;;;;;;;4.97;1.63;;;8.20;99.90;;;;;;4987301;28;20297;-71
2024/04/03 02:13:39;;;;;;;1.87;1.30;;;8.20;99.90;;;;;;4989216;28;20262;-71
2024/04/03 02:16:05;;;;;;;3.20;1.30;;;8.30;99.90;;;;;;4979190;28;20237;-71
2024/04/03 02:18:30;;;;;;;2.60;1.80;;;8.30;99.90;;;;;;4978185;28;20219;-71
2024/04/03 02:20:56;;;;;;;4.57;2.20;;;8.30;99.90;;;;;;4992974;28;20254;-71
2024/04/03 02:23:21;;;;;;;5.00;1.70;;;8.40;99.90;;;;;;4979561;28;20600;-71
2024/04/03 02:25:47;;;;;;;3.30;1.63;;;8.40;99.90;;;;;;4987617;28;20202;-71
2024/04/03 02:28:12;;;;;;;3.27;1.63;;;8.50;99.90;;;;;;4979357;28;20179;-71
2024/04/03 02:30:38;;;;;;;1.90;1.20;;;8.60;99.90;;;;;;4992229;28;20175;-71
2024/04/03 02:33:04;;;;;;;2.23;1.83;;;8.60;99.90;;;;;;4987535;28;20187;-71
2024/04/03 02:35:29;;;;;;;5.27;1.40;;;8.70;99.90;;;;;;4990477;28;20523;-71
2024/04/03 02:37:55;;;;;;;2.73;1.23;;;8.70;99.90;;;;;;4988676;28;20196;-71
2024/04/03 02:40:20;;;;;;;1.60;1.10;;;8.80;99.90;;;;;;4992150;28;20176;-71
2024/04/03 02:42:46;;;;;;;1.80;1.10;;;8.80;99.90;;;;;;4991987;28;20211;-71
2024/04/03 02:45:11;;;;;;;2.40;1.47;;;8.80;99.90;;;;;;4988727;28;20172;-71
2024/04/03 02:47:37;;;;;;;2.07;1.50;;;8.80;99.90;;;;;;4991755;28;20556;-71
2024/04/03 02:50:02;;;;;;;2.57;1.63;;;8.80;99.90;;;;;;4986610;28;20183;-71
2024/04/03 02:52:28;;;;;;;2.50;1.47;;;8.80;99.90;;;;;;4992148;28;20843;-71
2024/04/03 02:54:53;;;;;;;2.07;1.37;;;8.80;99.90;;;;;;4987498;28;20649;-71
2024/04/03 02:57:19;;;;;;;1.80;1.27;;;8.90;99.90;;;;;;4982491;28;20677;-71
2024/04/03 02:59:44;;;;;;;4.73;1.40;;;8.90;99.90;;;;;;4988455;28;20175;-71
2024/04/03 03:02:10;;;;;;;1.90;1.23;;;8.90;99.90;;;;;;4989545;28;20227;-71
2024/04/03 03:04:42;;;;;;;1.70;1.03;;;9.00;99.90;;;;;;4988570;28;20168;-71
2024/04/03 03:07:10;;;;;;;3.27;1.53;;;9.00;99.90;;;;;;4982631;28;20204;-71
2024/04/03 03:09:36;;;;;;;4.40;2.10;;;9.00;99.90;;;;;;4985336;28;20504;-71
2024/04/03 03:12:05;;;;;;;1.97;1.80;;;8.90;99.90;;;;;;4992023;28;20466;-71
2024/04/03 03:14:31;;;;;;;1.87;1.33;;;8.90;99.90;;;;;;4990043;28;20435;-71
2024/04/03 03:16:57;;;;;;;2.40;1.37;;;8.90;99.90;;;;;;4981816;28;20478;-71
2024/04/03 03:19:23;;;;;;;1.90;1.50;;;8.90;99.90;;;;;;4991179;28;20179;-71
2024/04/03 03:21:48;;;;;;;2.37;1.50;;;8.90;99.90;;;;;;4992306;28;20963;-71
2024/04/03 03:24:14;;;;;;;3.17;1.33;;;8.90;99.90;;;;;;4994685;28;20434;-71
2024/04/03 03:26:39;;;;;;;2.37;1.77;;;8.90;99.90;;;;;;4991162;28;20184;-71
2024/04/03 03:29:05;;;;;;;1.40;1.30;;;9.00;99.90;;;;;;4980050;28;20564;-70
2024/04/03 03:31:30;;;;;;;2.17;1.40;;;9.00;99.90;;;;;;4992269;28;20207;-70
2024/04/03 03:33:58;;;;;;;1.90;1.50;;;9.00;99.90;;;;;;4995012;28;20184;-70
2024/04/03 03:36:23;;;;;;;1.60;1.50;;;9.00;99.90;;;;;;4985262;28;20301;-70
2024/04/03 03:38:49;;;;;;;3.23;1.53;;;9.10;99.90;;;;;;4989426;28;20557;-70
2024/04/03 03:41:14;;;;;;;2.00;1.37;;;9.10;99.90;;;;;;4989636;28;20274;-70
2024/04/03 03:43:40;;;;;;;3.13;1.47;;;9.00;99.90;;;;;;4995381;28;20171;-70
2024/04/03 03:46:05;;;;;;;1.80;1.70;;;9.00;99.90;;;;;;4993505;28;20175;-70
2024/04/03 03:54:01;;;;;;;3.63;2.33;;;8.80;99.90;;;;;;4989289;28;20434;-70
2024/04/03 03:56:26;;;;;;;4.77;1.70;;;8.70;99.90;;;;;;4992193;28;20433;-70
2024/04/03 03:58:52;;;;;;;5.40;1.70;;;8.70;99.90;;;;;;4992618;28;20458;-70
2024/04/03 04:01:18;;;;;;;1.80;1.63;;;8.60;99.90;;;;;;4994662;28;20597;-70
2024/04/03 04:03:43;;;;;;;1.40;1.30;;;8.60;99.90;;;;;;4991734;28;20214;-70
2024/04/03 04:06:09;;;;;;;2.77;1.33;;;8.50;99.90;;;;;;4986834;28;20268;-70
2024/04/03 04:08:34;;;;;;;2.53;1.50;;;8.40;99.90;;;;;;4987288;28;20212;-70
2024/04/03 04:11:00;;;;;;;1.83;1.50;;;8.40;99.90;;;;;;4982650;28;20204;-70
2024/04/03 04:13:26;;;;;;;4.10;1.93;;;8.40;99.90;;;;;;4991140;28;20203;-70
2024/04/03 04:15:52;;;;;;;2.57;2.37;;;8.30;99.90;;;;;;4993260;28;20235;-70
2024/04/03 04:18:18;;;;;;;6.23;3.33;;;8.40;99.90;;;;;;4993090;28;20572;-70
2024/04/03 04:20:52;;;;;;;3.07;1.63;;;8.40;99.90;;;;;;4993105;28;20433;-70
2024/04/03 04:23:18;;;;;;;3.00;1.33;;;8.40;99.90;;;;;;4983018;28;20427;-70
2024/04/03 04:25:55;;;;;;;3.27;1.30;;;8.40;99.90;;;;;;4991951;28;20571;-70
2024/04/03 04:28:21;;;;;;;2.23;1.37;;;8.50;99.90;;;;;;4992976;28;20187;-70
2024/04/03 04:30:48;;;;;;;3.60;1.53;;;8.40;99.90;;;;;;4987473;28;20470;-70
2024/04/03 04:33:14;;;;;;;1.50;1.23;;;8.40;99.90;;;;;;4987829;28;20207;-70
2024/04/03 04:35:39;;;;;;;2.13;1.93;;;8.40;99.90;;;;;;4988749;28;20475;-70
2024/04/03 04:38:05;;;;;;;2.10;1.33;;;8.40;99.90;;;;;;4984414;28;20250;-70
2024/04/03 04:40:30;;;;;;;1.97;1.57;;;8.40;99.90;;;;;;4989615;28;20169;-70
2024/04/03 04:42:55;;;;;;;2.17;1.40;;;8.50;99.90;;;;;;4975211;28;20176;-70
2024/04/03 04:45:21;;;;;;;3.80;1.53;;;8.50;99.90;;;;;;4984960;28;20711;-70
2024/04/03 04:47:47;;;;;;;2.73;1.80;;;8.50;99.90;;;;;;4992519;28;20175;-70
2024/04/03 04:50:12;;;;;;;3.00;1.50;;;8.50;99.90;;;;;;4993963;28;20616;-70
2024/04/03 04:52:41;;;;;;;6.63;1.83;;;8.50;99.90;;;;;;4984908;28;20255;-70
2024/04/03 04:55:07;;;;;;;2.90;1.60;;;8.60;99.90;;;;;;4983740;28;20234;-70
2024/04/03 04:57:32;;;;;;;6.47;3.30;;;8.60;99.90;;;;;;4992185;28;20826;-70
2024/04/03 04:59:58;;;;;;;2.00;1.67;;;8.60;99.90;;;;;;4993617;28;20180;-71
2024/04/03 05:02:23;;;;;;;1.50;1.40;;;8.60;99.90;;;;;;4993211;28;20215;-70
2024/04/03 05:04:50;;;;;;;2.90;1.87;;;8.60;99.90;;;;;;4993432;28;20172;-71
2024/04/03 05:07:15;;;;;;;4.83;1.53;;;8.70;99.90;;;;;;4991818;28;20531;-70
2024/04/03 05:09:41;;;;;;;3.40;1.73;;;8.70;99.90;;;;;;4985302;28;20435;-71
2024/04/03 05:12:06;;;;;;;2.37;1.60;;;8.70;99.90;;;;;;4986005;28;20218;-71
2024/04/03 05:14:33;;;;;;;4.53;2.00;;;8.70;99.90;;;;;;4992168;28;20199;-71
2024/04/03 05:16:58;;;;;;;2.73;1.80;;;8.70;99.90;;;;;;4991027;28;20477;-71
2024/04/03 05:19:24;;;;;;;1.70;1.60;;;8.70;99.90;;;;;;4988258;28;20183;-70
2024/04/03 05:21:49;;;;;;;2.43;1.83;;;8.70;99.90;;;;;;4991421;28;20231;-70
2024/04/03 05:24:15;;;;;;;2.73;1.90;;;8.70;99.90;;;;;;4992166;28;20184;-71
2024/04/03 05:26:40;;;;;;;3.50;2.13;;;8.70;99.90;;;;;;4986780;28;20286;-70
2024/04/03 05:29:06;;;;;;;2.50;1.93;;;8.80;99.90;;;;;;4992147;28;20230;-71
2024/04/03 05:31:32;;;;;;;2.40;2.20;;;8.80;99.90;;;;;;4980305;28;21665;-70
2024/04/03 05:34:01;;;;;;;3.53;2.20;;;8.80;99.90;;;;;;4990133;28;20263;-70
2024/04/03 05:36:27;;;;;;;7.23;1.90;;;8.90;99.90;;;;;;4990987;28;20509;-71
2024/04/03 05:38:52;;;;;;;4.20;1.97;;;8.90;99.90;;;;;;4982790;28;20464;-70
2024/04/03 05:41:18;;;;;;;2.10;1.90;;;9.00;99.90;;;;;;4982886;28;20222;-71
2024/04/03 05:43:43;;;;;;;2.13;1.70;;;9.10;99.90;;;;;;4982339;28;20183;-71
2024/04/03 05:46:09;;;;;;;2.87;1.70;;;9.20;99.90;;;;;;4989556;28;20195;-70
2024/04/03 05:48:34;;;;;;;2.60;1.37;;;9.30;99.90;;;;;;4980590;28;20180;-70
2024/04/03 05:51:05;;;;;;;4.17;2.90;;;9.30;99.90;;;;;;4984843;28;20195;-71
2024/04/03 05:53:31;;;;;;;1.30;1.20;;;9.30;99.90;;;;;;4984763;28;20183;-70
2024/04/03 05:56:02;;;;;;;2.07;1.20;;;9.20;99.90;;;;;;4989285;28;20426;-71
2024/04/03 05:58:28;;;;;;;3.53;1.20;;;9.20;99.90;;;;;;4980430;28;20463;-71
2024/04/03 06:00:55;;;;;;;1.07;0.90;;;9.10;99.90;;;;;;4988049;28;20439;-71
2024/04/03 06:03:21;;;;;;;2.00;1.80;;;8.90;99.90;;;;;;4992126;28;20431;-70
2024/04/03 06:05:52;;;;;;;4.10;2.20;;;8.80;99.90;;;;;;4987221;28;20427;-71
2024/04/03 06:08:17;;;;;;;1.80;1.03;;;8.70;99.90;;;;;;4983825;28;20187;-71
2024/04/03 06:10:46;;;;;;;3.80;1.20;;;8.70;99.90;;;;;;4981019;28;20449;-71
2024/04/03 06:13:11;;;;;;;1.47;0.90;;;8.70;99.90;;;;;;4976935;28;20234;-70
2024/04/03 06:15:37;;;;;;;1.60;1.27;;;8.70;99.90;;;;;;4990530;28;20936;-71
2024/04/03 06:18:03;;;;;;;1.87;1.20;;;8.70;99.90;;;;;;4987958;28;20237;-70
2024/04/03 06:20:28;;;;;;;1.20;1.10;;;8.80;99.90;;;;;;4973492;28;20646;-72
2024/04/03 06:22:54;;;;;;;3.40;1.10;;;8.80;99.90;;;;;;4992510;28;20286;-70
2024/04/03 06:25:20;;;;;;;1.60;1.50;;;8.80;99.90;;;;;;4979160;28;20180;-70
2024/04/03 06:27:46;;;;;;;2.60;1.50;;;8.70;99.90;;;;;;4976724;28;20266;-70
2024/04/03 06:30:12;;;;;;;3.20;1.80;;;8.70;99.90;;;;;;4992450;28;20521;-71
2024/04/03 06:32:37;;;;;;;2.40;1.70;;;8.70;99.90;;;;;;4990984;28;20219;-70
2024/04/03 06:35:03;;;;;;;1.80;1.50;;;8.80;99.90;;;;;;4988045;28;20646;-71
2024/04/03 06:37:28;;;;;;;1.37;1.27;;;8.80;99.90;;;;;;4989757;28;20265;-70
2024/04/03 06:39:54;;;;;;;2.60;1.40;;;8.90;99.90;;;;;;4988091;28;20253;-70
2024/04/03 06:42:20;;;;;;;5.00;2.30;;;9.00;99.90;;;;;;4992569;28;20191;-70
2024/04/03 06:44:45;;;;;;;3.60;1.57;;;9.00;99.90;;;;;;4982374;28;20175;-71
2024/04/03 06:47:11;;;;;;;4.47;3.37;;;9.10;99.90;;;;;;4991269;28;20437;-70
2024/04/03 06:49:36;;;;;;;8.00;1.80;;;9.20;99.90;;;;;;4996960;28;20301;-71
2024/04/03 06:52:02;;;;;;;2.93;1.33;;;9.30;99.90;;;;;;4989620;28;20196;-70
2024/04/03 06:54:27;;;;;;;6.97;2.30;;;9.30;99.90;;;;;;4982612;28;20650;-71
2024/04/03 06:56:53;;;;;;;2.23;1.60;;;9.40;99.90;;;;;;4989269;28;20203;-71
2024/04/03 06:59:19;;;;;;;2.53;1.70;;;9.50;99.90;;;;;;4987178;28;20549;-71
2024/04/03 07:01:44;;;;;;;2.20;1.50;;;9.60;99.90;;;;;;4989830;28;20214;-71
2024/04/03 07:04:10;;;;;;;3.10;1.87;;;9.70;99.90;;;;;;4991960;28;20218;-70
2024/04/03 07:06:37;;;;;;;4.40;1.60;;;9.70;99.90;;;;;;4994282;28;20173;-70
2024/04/03 07:09:04;;;;;;;2.73;2.00;;;9.70;99.90;;;;;;4994318;28;20184;-70
2024/04/03 07:11:30;;;;;;;2.57;1.70;;;9.80;99.90;;;;;;4992799;28;20466;-71
2024/04/03 07:13:56;;;;;;;3.70;2.00;;;9.80;99.90;;;;;;4977105;28;20463;-71
2024/04/03 07:16:24;;;;;;;2.33;2.03;;;9.90;99.90;;;;;;4985908;28;20509;-71
2024/04/03 07:18:53;;;;;;;3.07;1.53;;;10.00;99.90;;;;;;4991351;28;20291;-72
2024/04/03 07:21:19;;;;;;;2.60;1.83;;;10.10;99.90;;;;;;4991580;28;20482;-71
2024/04/03 07:23:44;;;;;;;3.30;1.90;;;10.20;99.90;;;;;;4986642;28;20465;-70
2024/04/03 07:26:10;;;;;;;4.70;3.63;;;10.20;99.90;;;;;;4988111;28;20183;-70
2024/04/03 07:28:36;;;;;;;2.37;2.17;;;10.30;99.90;;;;;;4986119;28;20189;-71
2024/04/03 07:31:01;;;;;;;2.53;1.80;;;10.40;99.90;;;;;;4994704;28;20249;-70
2024/04/03 07:33:27;;;;;;;4.00;2.33;;;10.40;99.90;;;;;;4978938;28;20708;-71
2024/04/03 07:35:52;;;;;;;2.03;1.70;;;10.50;99.90;;;;;;4988158;28;20176;-70
2024/04/03 07:38:19;;;;;;;3.30;1.70;;;10.50;99.90;;;;;;4990515;28;20202;-71
2024/04/03 07:40:47;;;;;;;2.20;2.10;;;10.40;99.90;;;;;;4992518;28;20171;-70
2024/04/03 07:43:13;;;;;;;6.70;3.47;;;10.40;99.90;;;;;;4979891;28;20840;-70
2024/04/03 07:45:38;;;;;;;7.03;5.00;;;10.50;99.90;;;;;;4991439;28;20459;-71
2024/04/03 07:48:04;;;;;;;2.20;1.60;;;10.60;99.90;;;;;;4982456;28;20179;-71
2024/04/03 07:50:29;;;;;;;3.47;1.97;;;10.60;99.90;;;;;;4994408;28;20719;-71
2024/04/03 07:52:55;;;;;;;2.90;1.83;;;10.80;99.90;;;;;;4991175;28;20180;-71
2024/04/03 07:55:20;;;;;;;1.67;1.57;;;11.00;99.90;;;;;;4985771;28;20192;-70
2024/04/03 07:57:46;;;;;;;3.40;1.83;;;11.00;99.90;;;;;;4978666;28;20204;-71
2024/04/03 08:00:12;;;;;;;1.40;1.30;;;11.10;99.90;;;;;;4988963;28;20175;-71
2024/04/03 08:02:42;;;;;;;3.90;2.00;;;11.10;99.90;;;;;;4984181;28;20204;-71
2024/04/03 08:05:12;;;;;;;4.97;2.33;;;11.20;99.90;;;;;;4990160;28;20549;-72
2024/04/03 08:07:39;;;;;;;4.00;1.97;;;11.30;99.90;;;;;;4982184;28;21142;-71
2024/04/03 08:10:07;;;;;;;2.27;2.07;;;11.40;99.90;;;;;;4993564;28;20427;-71
2024/04/03 08:12:33;;;;;;;2.60;1.93;;;11.40;99.90;;;;;;4984521;28;20505;-70
2024/04/03 08:15:00;;;;;;;2.87;1.67;;;11.50;99.90;;;;;;4982974;28;20447;-71
2024/04/03 08:17:26;;;;;;;1.80;1.50;;;11.70;99.90;;;;;;4989524;28;20490;-71
2024/04/03 08:19:53;;;;;;;2.60;1.43;;;11.90;99.90;;;;;;4982778;28;20442;-72
2024/04/03 08:22:19;;;;;;;3.73;2.20;;;12.10;99.90;;;;;;4988540;28;20447;-71
2024/04/03 08:24:46;;;;;;;1.60;1.47;;;12.40;99.90;;;;;;4992019;28;20434;-71
2024/04/03 08:27:11;;;;;;;1.90;1.47;;;12.50;99.90;;;;;;4982454;28;21011;-70
2024/04/03 08:29:39;;;;;;;1.77;1.43;;;12.60;99.90;;;;;;4985319;28;20458;-71
2024/04/03 08:32:11;;;;;;;6.40;1.60;;;12.70;99.90;;;;;;4990865;28;20214;-71
2024/04/03 08:34:37;;;;;;;6.43;1.63;;;12.90;99.90;;;;;;4989450;28;20430;-71
2024/04/03 08:37:06;;;;;;;1.37;1.03;;;13.10;99.90;;;;;;4991168;28;20439;-71
2024/04/03 08:39:32;;;;;;;2.10;1.03;;;13.30;99.90;;;;;;4984373;28;20443;-71
2024/04/03 08:42:01;;;;;;;1.87;1.67;;;13.40;99.90;;;;;;4980433;28;20455;-71
2024/04/03 08:44:30;;;;;;;2.83;1.30;;;13.50;99.90;;;;;;4984539;28;20431;-70
2024/04/03 08:46:56;;;;;;;1.67;1.27;;;13.50;99.90;;;;;;4990149;28;20431;-70
2024/04/03 08:49:23;;;;;;;2.10;1.70;;;13.60;99.90;;;;;;4996500;28;20450;-68
2024/04/03 08:52:05;;;;;;;5.17;1.47;;;13.50;99.90;;;;;;4976230;28;20459;-68
2024/04/03 08:54:31;;;;;;;2.17;1.60;;;13.50;99.90;;;;;;4983685;28;20522;-68
2024/04/03 08:56:59;;;;;;;1.10;1.10;;;13.50;99.90;;;;;;4976997;28;20427;-68
2024/04/03 08:59:25;;;;;;;3.03;1.53;;;13.60;99.90;;;;;;4984667;28;20441;-69
2024/04/03 09:01:51;;;;;;;1.40;1.20;;;13.50;99.90;;;;;;4988109;28;20529;-68
2024/04/03 09:04:18;;;;;;;2.40;2.10;;;13.60;99.90;;;;;;4985905;28;20439;-68
2024/04/03 09:06:44;;;;;;;3.27;2.17;;;13.80;99.90;;;;;;4982393;28;20518;-68
2024/04/03 09:09:17;;;;;;;3.40;1.53;;;13.90;99.90;;;;;;4985456;28;20439;-68
2024/04/03 09:11:43;;;;;;;1.40;1.30;;;13.90;99.90;;;;;;4980107;28;20470;-68
2024/04/03 09:14:09;;;;;;;10.83;1.90;;;13.80;99.90;;;;;;4981019;28;20435;-68
2024/04/03 09:16:34;;;;;;;2.73;1.73;;;13.90;99.90;;;;;;4991435;28;20253;-69
2024/04/03 09:19:05;;;;;;;1.37;1.27;;;14.00;99.90;;;;;;4979632;28;20501;-69
2024/04/03 09:21:30;;;;;;;1.97;1.77;;;14.20;99.90;;;;;;4988633;28;20195;-68
2024/04/03 09:23:56;;;;;;;2.70;1.17;;;14.50;99.90;;;;;;4979225;28;20481;-69
2024/04/03 09:26:21;;;;;;;2.13;1.50;;;14.70;99.90;;;;;;4984362;28;20178;-68
2024/04/03 09:29:00;;;;;;;1.50;1.40;;;14.60;99.90;;;;;;4984782;28;20179;-68
2024/04/03 09:31:26;;;;;;;2.27;1.23;;;14.50;99.90;;;;;;4983523;28;20669;-69
2024/04/03 09:33:53;;;;;;;1.03;0.93;;;15.10;99.90;;;;;;4991268;28;20505;-69
2024/04/03 09:36:22;;;;;;;1.40;1.30;;;15.70;99.90;;;;;;4984602;28;20557;-68
2024/04/03 09:38:48;;;;;;;1.50;1.43;;;16.30;96.60;;;;;;4988885;28;20512;-69
2024/04/03 09:41:14;;;;;;;1.40;1.30;;;16.30;96.40;;;;;;4977299;28;20453;-68
2024/04/03 09:43:43;;;;;;;1.63;1.33;;;16.70;94.40;;;;;;4989536;28;20455;-69
2024/04/03 09:46:16;;;;;;;1.30;1.20;;;17.70;93.20;;;;;;4982066;28;20434;-69
2024/04/03 09:48:47;;;;;;;1.73;1.63;;;19.00;88.00;;;;;;4986940;28;20983;-68
2024/04/03 09:51:12;;;;;;;1.50;1.40;;;18.90;81.40;;;;;;4981309;28;20514;-68
2024/04/03 09:53:39;;;;;;;1.47;1.37;;;18.30;81.00;;;;;;4991055;28;20431;-68
2024/04/03 09:56:06;;;;;;;1.20;1.10;;;17.50;81.70;;;;;;4981126;28;20184;-68
2024/04/03 09:58:35;;;;;;;1.33;1.23;;;16.70;84.70;;;;;;4980696;28;20474;-68
2024/04/03 10:01:04;;;;;;;1.63;1.10;;;15.80;88.50;;;;;;4986173;28;20509;-68
2024/04/03 10:03:32;;;;;;;1.40;1.30;;;15.20;90.80;;;;;;4991052;28;20418;-68
2024/04/03 10:06:03;;;;;;;1.43;1.33;;;14.80;92.70;;;;;;4993186;28;20454;-68
2024/04/03 10:08:40;;;;;;;0.90;0.90;;;14.70;93.50;;;;;;4989958;28;20427;-69
2024/04/03 10:11:07;;;;;;;1.50;1.23;;;14.50;95.30;;;;;;4977097;28;21027;-68
2024/04/03 10:13:35;;;;;;;2.20;1.00;;;14.40;95.80;;;;;;4992076;28;20473;-69
2024/04/03 10:16:01;;;;;;;1.13;1.03;;;14.60;99.90;;;;;;4987542;28;20529;-71
2024/04/03 10:18:31;;;;;;;1.50;1.40;;;14.50;98.30;;;;;;4987598;28;20872;-69
2024/04/03 10:20:57;;;;;;;1.20;1.10;;;14.40;99.90;;;;;;4982163;28;20454;-68
2024/04/03 10:23:24;;;;;;;1.23;1.00;;;14.20;99.90;;;;;;4990117;28;20439;-68
2024/04/03 10:25:50;;;;;;;0.70;0.70;;;13.70;99.90;;;;;;4973069;28;20514;-68
2024/04/03 10:28:16;;;;;;;1.57;0.87;;;13.30;99.90;;;;;;4972429;28;20959;-68
2024/04/03 10:30:41;;;;;;;0.80;0.80;;;12.90;99.90;;;;;;4972978;28;20660;-68
2024/04/03 10:33:10;;;;;;;0.90;0.90;;;12.70;99.90;;;;;;4973069;28;20643;-68
2024/04/03 10:35:36;;;;;;;0.70;0.70;;;12.40;99.90;;;;;;4989686;28;20187;-67
2024/04/03 10:38:01;;;;;;;0.80;0.80;;;12.30;99.90;;;;;;4991621;28;20945;-68
2024/04/03 10:40:29;;;;;;;1.80;1.30;;;12.30;99.90;;;;;;4990976;28;20282;-68
2024/04/03 10:42:54;;;;;;;1.90;0.80;;;12.30;99.90;;;;;;4992407;28;20175;-68
2024/04/03 10:45:20;;;;;;;0.80;0.80;;;12.40;99.90;;;;;;4992461;28;20419;-68
2024/04/03 10:47:49;;;;;;;0.70;0.70;;;12.40;99.90;;;;;;4990026;28;20179;-68
2024/04/03 10:50:15;;;;;;;0.87;0.87;;;12.40;99.90;;;;;;4992325;28;20226;-68
2024/04/03 10:52:43;;;;;;;1.00;0.93;;;12.50;99.90;;;;;;4992226;28;20443;-68
2024/04/03 10:55:08;;;;;;;0.93;0.93;;;12.60;99.90;;;;;;4988820;28;20466;-68
2024/04/03 10:57:34;;;;;;;1.63;0.93;;;12.70;99.90;;;;;;4972094;28;20487;-68
2024/04/03 10:59:59;;;;;;;2.10;1.30;;;12.70;99.90;;;;;;4972906;28;20653;-68
2024/04/03 11:02:28;;;;;;;1.00;0.90;;;13.00;99.90;;;;;;4972804;28;20761;-68
2024/04/03 11:04:54;;;;;;;0.97;0.97;;;13.70;99.90;;;;;;4975455;28;20179;-68
2024/04/03 11:07:22;;;;;;;1.00;1.00;;;14.10;99.90;;;;;;4991592;28;20501;-68
2024/04/03 11:09:48;;;;;;;1.00;1.00;;;14.50;99.90;;;;;;4990993;28;20770;-68
2024/04/03 11:12:14;;;;;;;1.30;1.20;;;15.00;99.90;;;;;;4992155;28;20832;-68
2024/04/03 11:14:39;;;;;;;2.03;1.30;;;14.80;99.90;;;;;;4987345;28;20494;-68
2024/04/03 11:17:07;;;;;;;1.00;0.90;;;14.50;99.90;;;;;;4978515;28;20211;-68
2024/04/03 11:19:35;;;;;;;1.40;0.90;;;14.10;99.90;;;;;;4991701;28;20531;-68
2024/04/03 11:22:00;;;;;;;1.07;1.00;;;13.90;99.90;;;;;;4990626;28;20513;-68
2024/04/03 11:24:26;;;;;;;1.23;1.13;;;13.90;99.90;;;;;;4988481;28;20501;-68
2024/04/03 11:26:51;;;;;;;0.70;0.70;;;13.80;99.90;;;;;;4987619;28;20697;-68
2024/04/03 11:29:31;;;;;;;1.87;1.03;;;13.80;99.90;;;;;;4986242;28;20615;-69
2024/04/03 11:31:58;;;;;;;1.10;1.00;;;13.70;99.90;;;;;;4983242;28;20199;-69
2024/04/03 11:34:25;;;;;;;1.67;1.10;;;13.70;99.90;;;;;;4989543;28;20433;-68
2024/04/03 11:36:51;;;;;;;1.30;1.20;;;13.60;99.90;;;;;;4971654;28;20435;-68
2024/04/03 11:39:18;;;;;;;1.40;1.30;;;13.30;99.90;;;;;;4985083;28;20529;-68
2024/04/03 11:41:43;;;;;;;1.30;1.20;;;13.00;99.90;;;;;;4981230;28;20222;-68
2024/04/03 11:44:09;;;;;;;1.17;0.87;;;12.70;99.90;;;;;;4994270;28;20912;-69
2024/04/03 11:46:34;;;;;;;1.47;0.90;;;12.60;99.90;;;;;;4994719;28;20190;-69
2024/04/03 11:49:02;;;;;;;1.20;1.00;;;12.40;99.90;;;;;;4990720;28;20600;-68
2024/04/03 11:51:28;;;;;;;0.80;0.80;;;12.50;99.90;;;;;;4982067;28;20207;-68
2024/04/03 11:53:54;;;;;;;0.93;0.80;;;12.50;99.90;;;;;;4990530;28;20914;-72
2024/04/03 11:56:20;;;;;;;1.40;0.93;;;12.50;99.90;;;;;;4981918;28;20538;-66
2024/04/03 11:58:55;;;;;;;1.20;0.80;;;12.70;99.90;;;;;;4975807;28;20218;-68
2024/04/03 12:01:21;;;;;;;2.93;1.10;;;12.80;99.90;;;;;;4988185;28;20985;-66
2024/04/03 12:03:47;;;;;;;1.20;1.00;;;13.00;99.90;;;;;;4992431;28;20447;-69
2024/04/03 12:06:12;;;;;;;1.20;1.20;;;13.10;99.90;;;;;;4975694;28;20424;-68
2024/04/03 12:08:38;;;;;;;1.00;1.00;;;13.30;99.90;;;;;;4985313;28;20681;-70
2024/04/03 12:11:07;;;;;;;1.00;1.00;;;13.30;99.90;;;;;;4976701;28;20192;-68
2024/04/03 12:13:33;;;;;;;1.13;1.03;;;12.90;99.90;;;;;;4979938;28;20175;-68
2024/04/03 12:15:59;;;;;;;0.70;0.70;;;12.50;99.90;;;;;;4990848;28;21046;-68
2024/04/03 12:18:28;;;;;;;1.27;1.17;;;12.30;99.90;;;;;;4993983;28;20494;-68
2024/04/03 12:20:54;;;;;;;0.80;0.80;;;12.20;99.90;;;;;;4994699;28;20443;-69
2024/04/03 12:23:20;;;;;;;0.87;0.87;;;12.20;99.90;;;;;;4990128;28;20497;-67
2024/04/03 12:25:46;;;;;;;0.90;0.80;;;12.20;99.90;;;;;;4984973;28;20454;-70
2024/04/03 12:28:12;;;;;;;1.13;1.03;;;12.10;99.90;;;;;;4974713;28;20654;-66
2024/04/03 12:30:38;;;;;;;1.13;1.13;;;12.10;99.90;;;;;;4986873;28;20438;-66
2024/04/03 12:33:06;;;;;;;2.30;1.20;;;12.10;99.90;;;;;;4993848;28;20522;-66
2024/04/03 12:35:32;;;;;;;0.80;0.80;;;12.10;99.90;;;;;;4982855;28;20989;-67
2024/04/03 12:37:58;;;;;;;2.10;0.73;;;12.10;99.90;;;;;;4976816;28;20960;-66
2024/04/03 12:40:24;;;;;;;0.90;0.90;;;12.00;99.90;;;;;;4983376;28;20514;-66
2024/04/03 12:42:50;;;;;;;0.90;0.90;;;11.90;99.90;;;;;;4988161;28;20935;-66
2024/04/03 12:45:16;;;;;;;0.73;0.73;;;11.90;99.90;;;;;;4985339;28;20936;-66
2024/04/03 12:47:42;;;;;;;0.80;0.80;;;11.90;99.90;;;;;;4993712;28;20517;-66
2024/04/03 12:50:07;;;;;;;0.80;0.80;;;11.80;99.90;;;;;;4993503;28;20513;-66
2024/04/03 12:52:33;;;;;;;4.53;0.97;;;11.70;99.90;;;;;;4994378;28;20210;-66
2024/04/03 12:54:58;;;;;;;0.90;0.90;;;11.60;99.90;;;;;;4977425;28;20234;-66